sensor_id;sensor_type;location;lat;lon;timestamp;noise_LAeq;noise_LA_min;noise_LA_max;noise_LA01;noise_LA95
17594;Laerm;8916;47.086;15.920;2023-03-31T00:02:18;49.16;48.05;50.25;;
17594;Laerm;8916;47.086;15.920;2023-03-31T00:04:48;49.18;48.00;50.31;;
17594;Laerm;8916;47.086;15.920;2023-03-31T00:07:20;49.17;48.12;50.27;;
17594;Laerm;8916;47.086;15.920;2023-03-31T00:09:50;49.17;48.00;50.16;;
17594;Laerm;8916;47.086;15.920;2023-03-31T00:12:43;49.17;48.08;50.36;;
17594;Laerm;8916;47.086;15.920;2023-03-31T00:15:13;49.18;47.91;50.36;;
17594;Laerm;8916;47.086;15.920;2023-03-31T00:17:45;49.17;48.15;50.28;;
17594;Laerm;8916;47.086;15.920;2023-03-31T00:20:15;49.19;48.03;50.26;;
17594;Laerm;8916;47.086;15.920;2023-03-31T00:22:44;49.18;48.18;50.30;;
17594;Laerm;8916;47.086;15.920;2023-03-31T00:25:15;49.19;48.03;50.48;;
17594;Laerm;8916;47.086;15.920;2023-03-31T00:27:45;49.19;48.00;50.39;;
17594;Laerm;8916;47.086;15.920;2023-03-31T00:30:17;49.18;48.13;50.47;;
17594;Laerm;8916;47.086;15.920;2023-03-31T00:32:48;49.18;47.77;50.56;;
17594;Laerm;8916;47.086;15.920;2023-03-31T00:35:17;49.18;48.03;50.43;;
17594;Laerm;8916;47.086;15.920;2023-03-31T00:37:47;49.18;47.95;50.21;;
17594;Laerm;8916;47.086;15.920;2023-03-31T00:40:17;49.19;48.10;50.46;;
17594;Laerm;8916;47.086;15.920;2023-03-31T00:42:47;49.18;48.15;50.20;;
17594;Laerm;8916;47.086;15.920;2023-03-31T00:45:26;49.18;48.00;50.26;;
17594;Laerm;8916;47.086;15.920;2023-03-31T00:48:04;49.19;48.05;50.34;;
17594;Laerm;8916;47.086;15.920;2023-03-31T00:50:47;49.19;47.81;50.29;;
17594;Laerm;8916;47.086;15.920;2023-03-31T00:53:20;49.18;47.91;50.30;;
17594;Laerm;8916;47.086;15.920;2023-03-31T00:55:53;49.19;48.05;50.28;;
17594;Laerm;8916;47.086;15.920;2023-03-31T00:58:24;49.19;48.12;50.33;;
17594;Laerm;8916;47.086;15.920;2023-03-31T01:00:57;49.20;47.77;50.34;;
17594;Laerm;8916;47.086;15.920;2023-03-31T01:03:29;49.19;48.05;50.55;;
17594;Laerm;8916;47.086;15.920;2023-03-31T01:06:03;49.18;48.08;50.39;;
17594;Laerm;8916;47.086;15.920;2023-03-31T01:08:36;49.19;48.08;50.37;;
17594;Laerm;8916;47.086;15.920;2023-03-31T01:11:09;49.18;48.02;50.25;;
17594;Laerm;8916;47.086;15.920;2023-03-31T01:13:40;49.17;47.95;50.30;;
17594;Laerm;8916;47.086;15.920;2023-03-31T01:16:10;49.17;48.05;50.36;;
17594;Laerm;8916;47.086;15.920;2023-03-31T01:18:41;49.17;48.15;50.51;;
17594;Laerm;8916;47.086;15.920;2023-03-31T01:25:05;49.17;48.08;50.33;;
17594;Laerm;8916;47.086;15.920;2023-03-31T01:27:56;49.16;48.05;50.39;;
17594;Laerm;8916;47.086;15.920;2023-03-31T01:34:46;49.15;47.95;50.39;;
17594;Laerm;8916;47.086;15.920;2023-03-31T01:43:38;49.14;48.03;50.50;;
17594;Laerm;8916;47.086;15.920;2023-03-31T01:46:19;49.14;47.88;50.32;;
17594;Laerm;8916;47.086;15.920;2023-03-31T01:48:56;49.14;48.08;50.35;;
17594;Laerm;8916;47.086;15.920;2023-03-31T01:51:33;49.14;48.15;50.33;;
17594;Laerm;8916;47.086;15.920;2023-03-31T01:54:16;49.14;48.00;50.40;;
17594;Laerm;8916;47.086;15.920;2023-03-31T01:56:51;49.15;48.02;50.22;;
17594;Laerm;8916;47.086;15.920;2023-03-31T01:59:26;49.14;47.96;50.37;;
17594;Laerm;8916;47.086;15.920;2023-03-31T02:02:00;49.14;48.12;50.09;;
17594;Laerm;8916;47.086;15.920;2023-03-31T02:04:35;49.16;48.05;50.27;;
17594;Laerm;8916;47.086;15.920;2023-03-31T02:07:11;49.15;48.15;50.39;;
17594;Laerm;8916;47.086;15.920;2023-03-31T02:09:48;49.15;47.90;50.20;;
17594;Laerm;8916;47.086;15.920;2023-03-31T02:12:21;49.15;47.81;50.77;;
17594;Laerm;8916;47.086;15.920;2023-03-31T02:14:54;49.15;48.03;50.19;;
17594;Laerm;8916;47.086;15.920;2023-03-31T02:17:27;49.15;48.18;50.41;;
17594;Laerm;8916;47.086;15.920;2023-03-31T02:20:00;49.15;48.00;50.31;;
17594;Laerm;8916;47.086;15.920;2023-03-31T02:22:37;49.15;47.93;50.27;;
17594;Laerm;8916;47.086;15.920;2023-03-31T02:25:10;49.14;48.02;50.26;;
17594;Laerm;8916;47.086;15.920;2023-03-31T02:27:46;49.15;48.10;50.33;;
17594;Laerm;8916;47.086;15.920;2023-03-31T02:30:17;49.15;48.16;50.21;;
17594;Laerm;8916;47.086;15.920;2023-03-31T02:32:46;49.14;48.08;50.41;;
17594;Laerm;8916;47.086;15.920;2023-03-31T02:35:18;49.14;47.86;50.21;;
17594;Laerm;8916;47.086;15.920;2023-03-31T02:37:50;49.14;47.95;50.28;;
17594;Laerm;8916;47.086;15.920;2023-03-31T02:40:21;49.15;48.03;50.46;;
17594;Laerm;8916;47.086;15.920;2023-03-31T02:42:55;49.16;48.18;50.30;;
17594;Laerm;8916;47.086;15.920;2023-03-31T02:45:50;49.15;48.03;50.32;;
17594;Laerm;8916;47.086;15.920;2023-03-31T02:48:23;49.15;48.16;50.36;;
17594;Laerm;8916;47.086;15.920;2023-03-31T02:51:32;49.17;48.15;50.32;;
17594;Laerm;8916;47.086;15.920;2023-03-31T02:54:34;49.16;48.03;50.38;;
17594;Laerm;8916;47.086;15.920;2023-03-31T02:57:33;49.16;48.10;50.28;;
17594;Laerm;8916;47.086;15.920;2023-03-31T03:00:18;49.16;48.00;50.31;;
17594;Laerm;8916;47.086;15.920;2023-03-31T03:03:05;49.16;48.16;50.46;;
17594;Laerm;8916;47.086;15.920;2023-03-31T03:05:46;49.16;47.96;50.29;;
17594;Laerm;8916;47.086;15.920;2023-03-31T03:09:00;49.16;48.00;50.30;;
17594;Laerm;8916;47.086;15.920;2023-03-31T03:11:40;49.16;47.91;50.26;;
17594;Laerm;8916;47.086;15.920;2023-03-31T03:14:22;49.16;47.90;50.51;;
17594;Laerm;8916;47.086;15.920;2023-03-31T03:16:59;49.16;48.16;50.33;;
17594;Laerm;8916;47.086;15.920;2023-03-31T03:19:30;49.17;48.13;50.28;;
17594;Laerm;8916;47.086;15.920;2023-03-31T03:21:59;49.16;47.93;50.23;;
17594;Laerm;8916;47.086;15.920;2023-03-31T03:24:28;49.17;47.98;50.23;;
17594;Laerm;8916;47.086;15.920;2023-03-31T03:27:00;49.17;48.15;50.52;;
17594;Laerm;8916;47.086;15.920;2023-03-31T03:29:30;49.18;47.96;50.54;;
17594;Laerm;8916;47.086;15.920;2023-03-31T03:32:00;49.18;48.03;50.50;;
17594;Laerm;8916;47.086;15.920;2023-03-31T03:34:29;49.18;47.96;50.39;;
17594;Laerm;8916;47.086;15.920;2023-03-31T03:36:58;49.18;48.13;50.32;;
17594;Laerm;8916;47.086;15.920;2023-03-31T03:39:27;49.19;47.95;50.28;;
17594;Laerm;8916;47.086;15.920;2023-03-31T03:41:56;49.18;47.95;50.40;;
17594;Laerm;8916;47.086;15.920;2023-03-31T03:44:27;49.19;47.95;50.23;;
17594;Laerm;8916;47.086;15.920;2023-03-31T03:46:56;49.19;48.07;50.68;;
17594;Laerm;8916;47.086;15.920;2023-03-31T03:49:29;49.20;48.10;50.48;;
17594;Laerm;8916;47.086;15.920;2023-03-31T03:52:01;49.19;48.23;50.33;;
17594;Laerm;8916;47.086;15.920;2023-03-31T03:54:30;49.20;47.98;50.54;;
17594;Laerm;8916;47.086;15.920;2023-03-31T03:57:00;49.20;48.05;50.32;;
17594;Laerm;8916;47.086;15.920;2023-03-31T03:59:29;49.20;48.10;50.42;;
17594;Laerm;8916;47.086;15.920;2023-03-31T04:01:58;49.19;48.03;50.21;;
17594;Laerm;8916;47.086;15.920;2023-03-31T04:04:28;49.21;48.12;50.19;;
17594;Laerm;8916;47.086;15.920;2023-03-31T04:06:57;49.20;47.96;50.37;;
17594;Laerm;8916;47.086;15.920;2023-03-31T04:09:28;49.20;48.01;50.32;;
17594;Laerm;8916;47.086;15.920;2023-03-31T04:11:57;49.20;48.07;50.20;;
17594;Laerm;8916;47.086;15.920;2023-03-31T04:14:26;49.20;48.09;50.46;;
17594;Laerm;8916;47.086;15.920;2023-03-31T04:16:55;49.20;48.18;50.28;;
17594;Laerm;8916;47.086;15.920;2023-03-31T04:19:31;49.20;47.76;50.31;;
17594;Laerm;8916;47.086;15.920;2023-03-31T04:22:00;49.20;48.02;50.27;;
17594;Laerm;8916;47.086;15.920;2023-03-31T04:24:31;49.21;48.18;50.31;;
17594;Laerm;8916;47.086;15.920;2023-03-31T04:27:01;49.21;47.88;50.25;;
17594;Laerm;8916;47.086;15.920;2023-03-31T04:29:34;49.20;48.03;50.32;;
17594;Laerm;8916;47.086;15.920;2023-03-31T04:32:04;49.22;48.02;50.51;;
17594;Laerm;8916;47.086;15.920;2023-03-31T04:34:35;49.23;48.25;50.26;;
17594;Laerm;8916;47.086;15.920;2023-03-31T04:37:04;49.24;48.28;50.46;;
17594;Laerm;8916;47.086;15.920;2023-03-31T04:39:37;49.24;48.12;50.33;;
17594;Laerm;8916;47.086;15.920;2023-03-31T04:42:06;49.23;48.15;50.39;;
17594;Laerm;8916;47.086;15.920;2023-03-31T04:44:35;49.22;47.91;50.30;;
17594;Laerm;8916;47.086;15.920;2023-03-31T04:47:04;49.22;48.08;50.35;;
17594;Laerm;8916;47.086;15.920;2023-03-31T04:49:37;49.22;47.91;50.33;;
17594;Laerm;8916;47.086;15.920;2023-03-31T04:52:07;49.22;47.95;50.31;;
17594;Laerm;8916;47.086;15.920;2023-03-31T04:54:36;49.23;48.12;50.33;;
17594;Laerm;8916;47.086;15.920;2023-03-31T04:57:05;49.24;48.10;50.16;;
17594;Laerm;8916;47.086;15.920;2023-03-31T04:59:34;49.23;48.10;50.24;;
17594;Laerm;8916;47.086;15.920;2023-03-31T05:02:03;49.23;48.00;50.56;;
17594;Laerm;8916;47.086;15.920;2023-03-31T05:04:33;49.22;48.13;50.36;;
17594;Laerm;8916;47.086;15.920;2023-03-31T05:07:04;49.22;48.00;50.24;;
17594;Laerm;8916;47.086;15.920;2023-03-31T05:09:33;49.22;48.12;50.34;;
17594;Laerm;8916;47.086;15.920;2023-03-31T05:12:02;49.21;48.05;50.25;;
17594;Laerm;8916;47.086;15.920;2023-03-31T05:14:31;49.21;48.07;50.27;;
17594;Laerm;8916;47.086;15.920;2023-03-31T05:17:00;49.21;48.10;50.38;;
17594;Laerm;8916;47.086;15.920;2023-03-31T05:19:30;49.20;48.00;50.29;;
17594;Laerm;8916;47.086;15.920;2023-03-31T05:21:59;49.20;48.15;50.32;;
17594;Laerm;8916;47.086;15.920;2023-03-31T05:24:29;49.20;48.16;50.35;;
17594;Laerm;8916;47.086;15.920;2023-03-31T05:26:58;49.20;48.02;50.39;;
17594;Laerm;8916;47.086;15.920;2023-03-31T05:29:28;49.20;48.18;50.45;;
17594;Laerm;8916;47.086;15.920;2023-03-31T05:31:57;49.21;48.18;50.24;;
17594;Laerm;8916;47.086;15.920;2023-03-31T05:34:27;49.20;48.16;50.24;;
17594;Laerm;8916;47.086;15.920;2023-03-31T05:36:56;49.20;48.05;50.32;;
17594;Laerm;8916;47.086;15.920;2023-03-31T05:39:25;49.19;48.18;50.31;;
17594;Laerm;8916;47.086;15.920;2023-03-31T05:42:00;49.20;48.05;50.38;;
17594;Laerm;8916;47.086;15.920;2023-03-31T05:44:30;49.18;48.10;50.33;;
17594;Laerm;8916;47.086;15.920;2023-03-31T05:46:59;49.19;48.08;50.32;;
17594;Laerm;8916;47.086;15.920;2023-03-31T05:49:28;49.19;47.81;50.33;;
17594;Laerm;8916;47.086;15.920;2023-03-31T05:51:57;49.19;48.10;50.29;;
17594;Laerm;8916;47.086;15.920;2023-03-31T05:54:26;49.18;48.07;50.39;;
17594;Laerm;8916;47.086;15.920;2023-03-31T05:56:55;49.17;48.08;50.46;;
17594;Laerm;8916;47.086;15.920;2023-03-31T05:59:26;49.17;48.08;50.31;;
17594;Laerm;8916;47.086;15.920;2023-03-31T06:01:55;49.17;48.02;50.19;;
17594;Laerm;8916;47.086;15.920;2023-03-31T06:04:25;49.17;47.98;50.24;;
17594;Laerm;8916;47.086;15.920;2023-03-31T06:06:54;49.16;48.13;50.26;;
17594;Laerm;8916;47.086;15.920;2023-03-31T06:09:25;49.17;48.13;50.24;;
17594;Laerm;8916;47.086;15.920;2023-03-31T06:11:55;49.16;48.10;50.27;;
17594;Laerm;8916;47.086;15.920;2023-03-31T06:14:26;49.16;48.13;50.33;;
17594;Laerm;8916;47.086;15.920;2023-03-31T06:16:55;49.15;48.07;50.35;;
17594;Laerm;8916;47.086;15.920;2023-03-31T06:19:24;49.15;47.91;50.24;;
17594;Laerm;8916;47.086;15.920;2023-03-31T06:21:56;49.15;48.08;50.30;;
17594;Laerm;8916;47.086;15.920;2023-03-31T06:24:25;49.15;48.03;50.18;;
17594;Laerm;8916;47.086;15.920;2023-03-31T06:26:54;49.15;48.10;50.16;;
17594;Laerm;8916;47.086;15.920;2023-03-31T06:29:23;49.14;47.98;50.36;;
17594;Laerm;8916;47.086;15.920;2023-03-31T06:31:53;49.15;48.00;50.33;;
17594;Laerm;8916;47.086;15.920;2023-03-31T06:34:26;49.15;48.05;50.34;;
17594;Laerm;8916;47.086;15.920;2023-03-31T06:36:57;49.15;48.15;50.24;;
17594;Laerm;8916;47.086;15.920;2023-03-31T06:39:26;49.15;48.08;50.46;;
17594;Laerm;8916;47.086;15.920;2023-03-31T06:41:55;49.15;47.91;50.24;;
17594;Laerm;8916;47.086;15.920;2023-03-31T06:44:27;49.14;48.08;50.39;;
17594;Laerm;8916;47.086;15.920;2023-03-31T06:46:58;49.15;48.23;50.27;;
17594;Laerm;8916;47.086;15.920;2023-03-31T06:49:30;49.15;48.15;50.27;;
17594;Laerm;8916;47.086;15.920;2023-03-31T06:51:59;49.15;47.88;50.49;;
17594;Laerm;8916;47.086;15.920;2023-03-31T06:54:28;49.14;48.09;50.26;;
17594;Laerm;8916;47.086;15.920;2023-03-31T06:56:57;49.14;47.87;50.61;;
17594;Laerm;8916;47.086;15.920;2023-03-31T06:59:26;49.14;48.12;50.30;;
17594;Laerm;8916;47.086;15.920;2023-03-31T07:01:55;49.14;48.18;50.55;;
17594;Laerm;8916;47.086;15.920;2023-03-31T07:04:26;49.14;48.03;50.29;;
17594;Laerm;8916;47.086;15.920;2023-03-31T07:06:57;49.14;48.07;50.15;;
17594;Laerm;8916;47.086;15.920;2023-03-31T07:09:26;49.13;48.02;50.42;;
17594;Laerm;8916;47.086;15.920;2023-03-31T07:11:55;49.13;48.07;50.16;;
17594;Laerm;8916;47.086;15.920;2023-03-31T07:14:24;49.12;47.98;50.32;;
17594;Laerm;8916;47.086;15.920;2023-03-31T07:16:54;49.13;48.08;50.47;;
17594;Laerm;8916;47.086;15.920;2023-03-31T07:19:23;49.12;47.95;50.23;;
17594;Laerm;8916;47.086;15.920;2023-03-31T07:21:54;49.11;48.08;50.17;;
17594;Laerm;8916;47.086;15.920;2023-03-31T07:24:23;49.11;48.00;50.28;;
17594;Laerm;8916;47.086;15.920;2023-03-31T07:26:53;49.11;47.88;50.44;;
17594;Laerm;8916;47.086;15.920;2023-03-31T07:29:22;49.10;47.86;50.29;;
17594;Laerm;8916;47.086;15.920;2023-03-31T07:31:51;49.09;47.98;50.25;;
17594;Laerm;8916;47.086;15.920;2023-03-31T07:34:21;49.10;47.98;50.34;;
17594;Laerm;8916;47.086;15.920;2023-03-31T07:36:50;49.11;48.13;50.38;;
17594;Laerm;8916;47.086;15.920;2023-03-31T07:39:21;49.10;48.02;50.37;;
17594;Laerm;8916;47.086;15.920;2023-03-31T07:41:50;49.10;47.98;50.42;;
17594;Laerm;8916;47.086;15.920;2023-03-31T07:44:19;49.07;48.10;50.24;;
17594;Laerm;8916;47.086;15.920;2023-03-31T07:46:50;49.07;47.72;50.19;;
17594;Laerm;8916;47.086;15.920;2023-03-31T07:49:19;49.05;47.88;50.30;;
17594;Laerm;8916;47.086;15.920;2023-03-31T07:51:48;49.05;48.00;50.15;;
17594;Laerm;8916;47.086;15.920;2023-03-31T07:54:17;49.04;47.84;50.59;;
17594;Laerm;8916;47.086;15.920;2023-03-31T07:56:47;49.04;47.93;50.08;;
17594;Laerm;8916;47.086;15.920;2023-03-31T07:59:17;49.04;47.88;50.21;;
17594;Laerm;8916;47.086;15.920;2023-03-31T08:01:46;49.04;48.05;50.30;;
17594;Laerm;8916;47.086;15.920;2023-03-31T08:04:15;49.04;47.93;50.22;;
17594;Laerm;8916;47.086;15.920;2023-03-31T08:06:44;49.03;48.03;50.35;;
17594;Laerm;8916;47.086;15.920;2023-03-31T08:09:14;49.04;47.93;50.20;;
17594;Laerm;8916;47.086;15.920;2023-03-31T08:11:43;49.02;47.79;50.15;;
17594;Laerm;8916;47.086;15.920;2023-03-31T08:14:16;49.02;47.93;50.25;;
17594;Laerm;8916;47.086;15.920;2023-03-31T08:17:01;49.02;47.93;50.25;;
17594;Laerm;8916;47.086;15.920;2023-03-31T08:19:30;49.01;47.98;50.29;;
17594;Laerm;8916;47.086;15.920;2023-03-31T08:21:59;49.00;47.84;50.08;;
17594;Laerm;8916;47.086;15.920;2023-03-31T08:24:28;48.98;47.90;50.35;;
17594;Laerm;8916;47.086;15.920;2023-03-31T08:27:00;48.97;47.74;50.04;;
17594;Laerm;8916;47.086;15.920;2023-03-31T08:29:30;48.95;47.76;50.05;;
17594;Laerm;8916;47.086;15.920;2023-03-31T08:32:00;48.96;47.90;50.21;;
17594;Laerm;8916;47.086;15.920;2023-03-31T08:34:29;48.96;47.83;50.13;;
17594;Laerm;8916;47.086;15.920;2023-03-31T08:36:58;48.95;47.88;50.19;;
17594;Laerm;8916;47.086;15.920;2023-03-31T08:39:27;48.94;47.98;50.19;;
17594;Laerm;8916;47.086;15.920;2023-03-31T08:42:00;48.92;47.88;50.49;;
17594;Laerm;8916;47.086;15.920;2023-03-31T08:44:35;48.91;47.65;50.14;;
17594;Laerm;8916;47.086;15.920;2023-03-31T08:47:10;48.90;47.70;50.02;;
17594;Laerm;8916;47.086;15.920;2023-03-31T08:49:44;48.89;47.81;50.13;;
17594;Laerm;8916;47.086;15.920;2023-03-31T08:52:21;48.89;47.86;50.01;;
17594;Laerm;8916;47.086;15.920;2023-03-31T08:54:54;48.88;47.70;50.03;;
17594;Laerm;8916;47.086;15.920;2023-03-31T08:57:32;48.86;47.81;50.10;;
17594;Laerm;8916;47.086;15.920;2023-03-31T09:00:14;48.85;47.78;50.29;;
17594;Laerm;8916;47.086;15.920;2023-03-31T09:02:50;48.85;47.68;49.96;;
17594;Laerm;8916;47.086;15.920;2023-03-31T09:05:46;48.77;47.65;49.98;;
17594;Laerm;8916;47.086;15.920;2023-03-31T09:08:37;48.76;47.48;50.05;;
17594;Laerm;8916;47.086;15.920;2023-03-31T09:11:12;48.69;47.57;49.89;;
17594;Laerm;8916;47.086;15.920;2023-03-31T09:16:47;48.75;47.46;50.17;;
17594;Laerm;8916;47.086;15.920;2023-03-31T09:19:32;48.75;47.72;49.89;;
17594;Laerm;8916;47.086;15.920;2023-03-31T09:22:04;48.75;47.72;50.10;;
17594;Laerm;8916;47.086;15.920;2023-03-31T09:24:49;48.75;47.59;49.88;;
17594;Laerm;8916;47.086;15.920;2023-03-31T09:27:20;48.74;47.50;50.08;;
17594;Laerm;8916;47.086;15.920;2023-03-31T09:29:55;48.73;47.60;50.20;;
17594;Laerm;8916;47.086;15.920;2023-03-31T09:32:29;48.72;47.67;49.80;;
17594;Laerm;8916;47.086;15.920;2023-03-31T09:35:12;48.75;47.60;49.92;;
17594;Laerm;8916;47.086;15.920;2023-03-31T09:37:42;48.72;47.54;49.93;;
17594;Laerm;8916;47.086;15.920;2023-03-31T09:40:16;48.62;47.55;49.75;;
17594;Laerm;8916;47.086;15.920;2023-03-31T09:42:48;48.53;47.42;49.79;;
17594;Laerm;8916;47.086;15.920;2023-03-31T09:45:19;48.51;47.46;49.62;;
17594;Laerm;8916;47.086;15.920;2023-03-31T09:47:53;48.52;47.28;50.05;;
17594;Laerm;8916;47.086;15.920;2023-03-31T09:50:23;48.54;47.34;49.91;;
17594;Laerm;8916;47.086;15.920;2023-03-31T09:52:56;48.53;47.38;49.82;;
17594;Laerm;8916;47.086;15.920;2023-03-31T09:55:32;48.57;47.46;49.85;;
17594;Laerm;8916;47.086;15.920;2023-03-31T09:58:11;48.58;47.48;49.63;;
17594;Laerm;8916;47.086;15.920;2023-03-31T10:00:42;48.51;47.06;49.97;;
17594;Laerm;8916;47.086;15.920;2023-03-31T10:03:13;48.53;47.40;49.87;;
17594;Laerm;8916;47.086;15.920;2023-03-31T10:05:49;48.55;47.50;49.69;;
17594;Laerm;8916;47.086;15.920;2023-03-31T10:08:27;48.55;47.32;49.93;;
17594;Laerm;8916;47.086;15.920;2023-03-31T10:11:09;48.56;47.38;49.71;;
17594;Laerm;8916;47.086;15.920;2023-03-31T10:13:45;48.52;47.46;49.75;;
17594;Laerm;8916;47.086;15.920;2023-03-31T10:16:22;48.51;47.42;49.84;;
17594;Laerm;8916;47.086;15.920;2023-03-31T10:18:53;48.51;47.32;50.02;;
17594;Laerm;8916;47.086;15.920;2023-03-31T10:21:26;48.54;47.55;49.58;;
17594;Laerm;8916;47.086;15.920;2023-03-31T10:23:59;48.55;47.36;49.83;;
17594;Laerm;8916;47.086;15.920;2023-03-31T10:26:29;48.57;47.48;49.69;;
17594;Laerm;8916;47.086;15.920;2023-03-31T10:28:58;48.60;47.44;49.72;;
17594;Laerm;8916;47.086;15.920;2023-03-31T10:31:34;48.56;47.36;49.82;;
17594;Laerm;8916;47.086;15.920;2023-03-31T10:34:08;48.54;47.26;49.77;;
17594;Laerm;8916;47.086;15.920;2023-03-31T10:36:46;48.53;47.46;49.74;;
17594;Laerm;8916;47.086;15.920;2023-03-31T10:39:17;48.64;47.40;49.89;;
17594;Laerm;8916;47.086;15.920;2023-03-31T10:41:50;48.70;47.57;49.88;;
17594;Laerm;8916;47.086;15.920;2023-03-31T10:44:33;48.72;47.44;50.13;;
17594;Laerm;8916;47.086;15.920;2023-03-31T10:47:06;48.73;47.61;49.93;;
17594;Laerm;8916;47.086;15.920;2023-03-31T10:49:49;48.74;47.50;50.09;;
17594;Laerm;8916;47.086;15.920;2023-03-31T10:52:21;48.76;47.59;49.94;;
17594;Laerm;8916;47.086;15.920;2023-03-31T10:54:55;48.75;47.65;49.82;;
17594;Laerm;8916;47.086;15.920;2023-03-31T10:57:33;48.75;47.53;50.03;;
17594;Laerm;8916;47.086;15.920;2023-03-31T11:00:17;48.76;47.36;49.97;;
17594;Laerm;8916;47.086;15.920;2023-03-31T11:06:27;48.76;47.63;50.33;;
17594;Laerm;8916;47.086;15.920;2023-03-31T11:09:12;48.76;47.44;49.96;;
17594;Laerm;8916;47.086;15.920;2023-03-31T11:11:58;48.77;47.65;49.90;;
17594;Laerm;8916;47.086;15.920;2023-03-31T11:14:42;48.78;47.81;49.99;;
17594;Laerm;8916;47.086;15.920;2023-03-31T11:17:32;48.78;47.65;49.85;;
17594;Laerm;8916;47.086;15.920;2023-03-31T11:20:15;48.77;47.63;49.97;;
17594;Laerm;8916;47.086;15.920;2023-03-31T11:22:55;48.77;47.76;49.97;;
17594;Laerm;8916;47.086;15.920;2023-03-31T11:25:36;48.77;47.77;49.94;;
17594;Laerm;8916;47.086;15.920;2023-03-31T11:28:24;48.77;47.54;49.98;;
17594;Laerm;8916;47.086;15.920;2023-03-31T11:31:05;48.76;47.76;50.06;;
17594;Laerm;8916;47.086;15.920;2023-03-31T11:33:50;48.74;47.58;50.10;;
17594;Laerm;8916;47.086;15.920;2023-03-31T11:36:38;48.73;47.61;50.01;;
17594;Laerm;8916;47.086;15.920;2023-03-31T11:39:25;48.71;47.44;49.94;;
17594;Laerm;8916;47.086;15.920;2023-03-31T11:42:01;48.69;47.59;49.85;;
17594;Laerm;8916;47.086;15.920;2023-03-31T11:44:38;48.68;47.63;49.79;;
17594;Laerm;8916;47.086;15.920;2023-03-31T11:47:13;48.64;47.42;49.81;;
17594;Laerm;8916;47.086;15.920;2023-03-31T11:49:47;48.68;47.46;49.80;;
17594;Laerm;8916;47.086;15.920;2023-03-31T11:52:26;48.69;47.61;49.87;;
17594;Laerm;8916;47.086;15.920;2023-03-31T11:55:01;48.71;47.55;50.26;;
17594;Laerm;8916;47.086;15.920;2023-03-31T11:57:40;48.68;47.52;49.97;;
17594;Laerm;8916;47.086;15.920;2023-03-31T12:00:17;48.66;47.55;49.95;;
17594;Laerm;8916;47.086;15.920;2023-03-31T12:02:51;48.65;47.55;49.88;;
17594;Laerm;8916;47.086;15.920;2023-03-31T12:05:25;48.66;47.48;49.95;;
17594;Laerm;8916;47.086;15.920;2023-03-31T12:08:01;48.63;47.44;49.93;;
17594;Laerm;8916;47.086;15.920;2023-03-31T12:10:35;48.64;47.57;49.75;;
17594;Laerm;8916;47.086;15.920;2023-03-31T12:13:29;48.65;47.52;50.05;;
17594;Laerm;8916;47.086;15.920;2023-03-31T12:16:05;48.67;47.48;49.84;;
17594;Laerm;8916;47.086;15.920;2023-03-31T12:18:41;48.66;47.54;49.98;;
17594;Laerm;8916;47.086;15.920;2023-03-31T12:21:13;48.64;47.54;49.84;;
17594;Laerm;8916;47.086;15.920;2023-03-31T12:23:43;48.62;47.52;49.83;;
17594;Laerm;8916;47.086;15.920;2023-03-31T12:26:30;48.61;47.65;49.96;;
17594;Laerm;8916;47.086;15.920;2023-03-31T12:29:19;48.62;47.50;49.87;;
17594;Laerm;8916;47.086;15.920;2023-03-31T12:31:51;48.58;47.55;49.72;;
17594;Laerm;8916;47.086;15.920;2023-03-31T12:34:22;48.56;47.46;49.80;;
17594;Laerm;8916;47.086;15.920;2023-03-31T12:37:14;48.60;47.36;49.80;;
17594;Laerm;8916;47.086;15.920;2023-03-31T12:39:57;48.61;47.54;49.94;;
17594;Laerm;8916;47.086;15.920;2023-03-31T12:46:27;48.61;47.42;49.67;;
17594;Laerm;8916;47.086;15.920;2023-03-31T12:49:14;48.55;47.48;49.82;;
17594;Laerm;8916;47.086;15.920;2023-03-31T12:51:58;48.50;47.26;50.03;;
17594;Laerm;8916;47.086;15.920;2023-03-31T12:54:56;48.51;47.50;50.00;;
17594;Laerm;8916;47.086;15.920;2023-03-31T12:57:29;48.50;47.24;49.59;;
17594;Laerm;8916;47.086;15.920;2023-03-31T13:00:22;48.46;47.36;49.69;;
17594;Laerm;8916;47.086;15.920;2023-03-31T13:03:41;48.38;47.20;49.78;;
17594;Laerm;8916;47.086;15.920;2023-03-31T13:08:59;48.40;47.30;49.82;;
17594;Laerm;8916;47.086;15.920;2023-03-31T13:11:38;48.49;47.32;49.78;;
17594;Laerm;8916;47.086;15.920;2023-03-31T13:14:16;48.60;47.34;49.77;;
17594;Laerm;8916;47.086;15.920;2023-03-31T13:16:48;48.62;47.50;50.09;;
17594;Laerm;8916;47.086;15.920;2023-03-31T13:19:29;48.63;47.36;49.78;;
17594;Laerm;8916;47.086;15.920;2023-03-31T13:22:02;48.65;47.48;49.82;;
17594;Laerm;8916;47.086;15.920;2023-03-31T13:24:33;48.65;47.59;49.94;;
17594;Laerm;8916;47.086;15.920;2023-03-31T13:27:29;48.65;47.52;49.95;;
17594;Laerm;8916;47.086;15.920;2023-03-31T13:29:58;48.59;47.52;49.89;;
17594;Laerm;8916;47.086;15.920;2023-03-31T13:32:28;48.55;47.38;49.70;;
17594;Laerm;8916;47.086;15.920;2023-03-31T13:35:02;48.48;47.32;49.79;;
17594;Laerm;8916;47.086;15.920;2023-03-31T13:38:00;48.51;47.50;50.04;;
17594;Laerm;8916;47.086;15.920;2023-03-31T13:40:54;48.50;47.44;49.92;;
17594;Laerm;8916;47.086;15.920;2023-03-31T13:43:53;48.57;47.38;49.90;;
17594;Laerm;8916;47.086;15.920;2023-03-31T13:46:46;48.55;47.54;49.78;;
17594;Laerm;8916;47.086;15.920;2023-03-31T13:49:49;48.51;47.34;49.69;;
17594;Laerm;8916;47.086;15.920;2023-03-31T13:52:43;48.47;47.34;49.63;;
17594;Laerm;8916;47.086;15.920;2023-03-31T13:58:43;48.60;47.36;49.79;;
17594;Laerm;8916;47.086;15.920;2023-03-31T14:01:53;48.63;47.38;49.82;;
17594;Laerm;8916;47.086;15.920;2023-03-31T14:07:44;48.67;47.55;50.05;;
17594;Laerm;8916;47.086;15.920;2023-03-31T14:10:28;48.69;47.50;50.17;;
17594;Laerm;8916;47.086;15.920;2023-03-31T14:13:06;48.71;47.57;50.26;;
17594;Laerm;8916;47.086;15.920;2023-03-31T14:15:38;48.72;47.55;49.87;;
17594;Laerm;8916;47.086;15.920;2023-03-31T14:18:13;48.73;47.63;50.04;;
17594;Laerm;8916;47.086;15.920;2023-03-31T14:20:51;48.73;47.59;50.01;;
17594;Laerm;8916;47.086;15.920;2023-03-31T14:23:40;48.74;47.50;49.95;;
17594;Laerm;8916;47.086;15.920;2023-03-31T14:26:25;48.75;47.70;49.92;;
17594;Laerm;8916;47.086;15.920;2023-03-31T14:29:08;48.75;47.55;49.95;;
17594;Laerm;8916;47.086;15.920;2023-03-31T14:31:47;48.75;47.65;49.89;;
17594;Laerm;8916;47.086;15.920;2023-03-31T14:34:34;48.75;47.54;50.03;;
17594;Laerm;8916;47.086;15.920;2023-03-31T14:37:09;48.75;47.63;50.02;;
17594;Laerm;8916;47.086;15.920;2023-03-31T14:39:45;48.76;47.72;49.88;;
17594;Laerm;8916;47.086;15.920;2023-03-31T14:42:16;48.76;47.48;50.08;;
17594;Laerm;8916;47.086;15.920;2023-03-31T14:44:46;48.76;47.72;50.07;;
17594;Laerm;8916;47.086;15.920;2023-03-31T14:47:21;48.77;47.63;50.04;;
17594;Laerm;8916;47.086;15.920;2023-03-31T14:49:59;48.76;47.61;49.90;;
17594;Laerm;8916;47.086;15.920;2023-03-31T14:52:31;48.77;47.67;50.11;;
17594;Laerm;8916;47.086;15.920;2023-03-31T14:55:05;48.77;47.65;50.03;;
17594;Laerm;8916;47.086;15.920;2023-03-31T14:57:40;48.76;47.48;49.94;;
17594;Laerm;8916;47.086;15.920;2023-03-31T15:00:16;48.78;47.63;49.87;;
17594;Laerm;8916;47.086;15.920;2023-03-31T15:02:46;48.77;47.72;50.00;;